Time;durP1;ratioP1;P1;durP2;ratioP2;P2;SDS_P1;SDS_P2;PMS_P1;PMS_P2;Temp;Humidity;BMP_temperature;BMP_pressure;BME280_temperature;BME280_humidity;BME280_pressure;Samples;Min_cycle;Max_cycle;Signal;HPM_P1;HPM_P2
2023/11/02 00:09:25;;;;;;;11.82;6.63;;;;;;;7.26;76.46;99022.56;30838422;28;126704;-64
2023/11/02 00:24:27;;;;;;;17.87;7.03;;;;;;;7.25;77.09;98991.78;30838389;28;97437;-64
2023/11/02 00:39:27;;;;;;;9.10;6.50;;;;;;;7.27;77.00;98995.91;30837988;28;97695;-64
2023/11/02 00:54:53;;;;;;;12.70;6.70;;;;;;;7.26;77.54;98972.25;30835828;28;97235;-63
2023/11/02 01:10:00;;;;;;;11.10;6.97;;;;;;;7.19;77.87;98955.41;30842873;28;96792;-64
2023/11/02 01:25:13;;;;;;;12.33;7.50;;;;;;;7.10;77.27;98947.53;30854490;28;96673;-64
2023/11/02 01:40:31;;;;;;;11.30;7.20;;;;;;;7.01;78.14;98916.00;30853426;28;96914;-64
2023/11/02 01:55:53;;;;;;;13.47;7.87;;;;;;;6.90;77.84;98918.06;30850893;28;96646;-64
2023/11/02 02:11:12;;;;;;;17.20;8.17;;;;;;;6.72;77.96;98889.25;30849318;28;97111;-64
2023/11/02 02:26:25;;;;;;;13.23;8.07;;;;;;;6.62;78.60;98882.56;30849203;28;96528;-64
2023/11/02 02:41:31;;;;;;;11.27;6.93;;;;;;;6.55;79.12;98866.56;30847075;28;125529;-64
2023/11/02 02:56:35;;;;;;;12.50;6.63;;;;;;;6.48;78.81;98816.19;30845527;28;97059;-64
2023/11/02 03:11:36;;;;;;;9.63;5.63;;;;;;;6.43;78.75;98827.28;30843364;28;96615;-63
2023/11/02 03:26:42;;;;;;;10.57;5.30;;;;;;;6.31;79.36;98796.94;30842715;28;97110;-64
2023/11/02 03:42:03;;;;;;;10.57;5.07;;;;;;;6.31;78.91;98791.66;30841288;28;97130;-64
2023/11/02 03:57:26;;;;;;;12.33;5.10;;;;;;;6.31;79.68;98778.44;30839032;28;98543;-63
2023/11/02 04:12:32;;;;;;;9.00;4.40;;;;;;;6.40;79.92;98753.56;30838005;28;96773;-63
2023/11/02 04:27:33;;;;;;;9.73;5.70;;;;;;;6.43;79.69;98739.16;30837621;28;97046;-62
2023/11/02 04:42:34;;;;;;;12.13;5.70;;;;;;;6.43;79.74;98702.94;30838705;28;97187;-64
2023/11/02 04:57:35;;;;;;;8.32;4.45;;;;;;;6.46;79.83;98687.72;30855431;28;97194;-64
2023/11/02 05:12:35;;;;;;;8.53;5.10;;;;;;;6.48;79.79;98675.13;30854537;28;97093;-64
2023/11/02 05:27:35;;;;;;;8.00;4.75;;;;;;;6.43;80.11;98649.22;30851176;28;97098;-63
2023/11/02 05:42:36;;;;;;;7.47;5.13;;;;;;;6.38;79.97;98641.00;30849423;28;113884;-63
2023/11/02 05:57:36;;;;;;;15.35;6.15;;;;;;;6.35;79.75;98636.91;30843886;28;96790;-62
2023/11/02 06:12:36;;;;;;;10.50;5.57;;;;;;;6.45;79.95;98610.19;30842648;28;126843;-63
2023/11/02 06:27:37;;;;;;;9.35;6.25;;;;;;;6.55;79.97;98602.00;30843876;28;125184;-63
2023/11/02 06:42:37;;;;;;;9.15;5.85;;;;;;;7.47;80.38;98570.63;30842550;28;96671;-65
2023/11/02 06:57:37;;;;;;;8.45;6.25;;;;;;;8.62;80.31;98536.72;30841593;28;127008;-63
2023/11/02 07:12:38;;;;;;;13.10;6.80;;;;;;;9.21;78.64;98526.47;30841907;28;97200;-63
2023/11/02 07:27:38;;;;;;;9.32;5.80;;;;;;;10.10;79.25;98509.25;30838618;28;126676;-63
2023/11/02 07:42:38;;;;;;;7.18;3.42;;;;;;;11.68;76.82;98493.63;30834563;28;125586;-63
2023/11/02 07:57:38;;;;;;;7.50;3.58;;;;;;;13.98;74.00;98474.31;30834903;28;106746;-63
2023/11/02 08:12:39;;;;;;;5.50;3.15;;;;;;;18.51;64.64;98455.91;30834273;28;126670;-63
2023/11/02 08:27:39;;;;;;;6.13;3.05;;;;;;;22.37;54.13;98441.81;30831660;28;125763;-63
2023/11/02 08:42:40;;;;;;;5.30;2.53;;;;;;;24.60;46.75;98402.34;30831552;28;97586;-62
2023/11/02 08:57:41;;;;;;;4.87;2.53;;;;;;;26.36;41.22;98391.31;30830374;28;97685;-62
2023/11/02 09:12:41;;;;;;;4.25;3.00;;;;;;;27.77;35.77;98392.75;30830441;28;96918;-64
2023/11/02 09:27:42;;;;;;;4.13;2.15;;;;;;;30.47;28.82;98374.09;30829812;28;125546;-64
2023/11/02 09:42:44;;;;;;;5.30;2.40;;;;;;;24.57;34.47;98340.38;30848999;28;97823;-64
2023/11/02 09:57:45;;;;;;;4.60;2.23;;;;;;;29.70;28.58;98334.47;30846723;28;97369;-64
2023/11/02 10:12:46;;;;;;;3.70;1.77;;;;;;;30.52;25.19;98282.38;30846902;28;98403;-63
2023/11/02 10:27:47;;;;;;;4.18;2.00;;;;;;;28.86;25.66;98249.78;30843281;28;97306;-64
2023/11/02 10:42:51;;;;;;;3.35;1.92;;;;;;;24.73;29.55;98230.03;30840386;28;125343;-64
2023/11/02 10:57:53;;;;;;;3.47;1.87;;;;;;;27.91;26.99;98202.94;30842155;28;97277;-64
2023/11/02 11:12:54;;;;;;;3.00;1.67;;;;;;;28.41;26.82;98201.25;30841216;28;96771;-64
2023/11/02 11:27:54;;;;;;;8.00;4.53;;;;;;;25.62;30.40;98144.75;30840181;28;96642;-64
2023/11/02 11:43:12;;;;;;;4.13;2.13;;;;;;;30.69;24.54;98114.47;30838118;28;126739;-63
2023/11/02 11:58:14;;;;;;;3.97;2.20;;;;;;;23.04;31.83;98107.66;30834231;28;97258;-63
2023/11/02 12:13:14;;;;;;;4.00;2.40;;;;;;;19.38;38.35;98076.44;30833750;28;97010;-62
2023/11/02 12:28:15;;;;;;;8.00;2.70;;;;;;;20.05;40.25;98075.97;30832868;28;96622;-65
2023/11/02 12:43:23;;;;;;;4.17;1.80;;;;;;;26.12;34.18;98075.25;30832378;28;97173;-63
2023/11/02 12:58:24;;;;;;;6.13;2.97;;;;;;;31.45;24.02;98041.91;30832577;28;97266;-64
2023/11/02 13:13:24;;;;;;;6.30;2.70;;;;;;;32.16;23.05;98032.66;30849990;28;97118;-63
2023/11/02 13:28:25;;;;;;;4.43;1.85;;;;;;;31.87;23.10;98029.38;30848311;28;102447;-64
2023/11/02 13:43:25;;;;;;;7.38;3.28;;;;;;;22.85;32.44;97969.34;30846232;28;127271;-64
2023/11/02 13:58:25;;;;;;;11.40;4.57;;;;;;;19.47;38.39;97945.19;30844709;28;124589;-62
2023/11/02 14:13:26;;;;;;;5.43;1.97;;;;;;;17.69;42.13;97879.28;30842601;28;117275;-63
2023/11/02 14:28:27;;;;;;;6.63;1.50;;;;;;;16.33;45.67;97857.19;30843480;28;97415;-64
2023/11/02 14:43:27;;;;;;;20.43;9.77;;;;;;;15.36;48.61;97872.56;30841225;28;97032;-63
2023/11/02 14:58:28;;;;;;;4.88;2.47;;;;;;;14.71;50.29;97861.06;30840529;28;114760;-65
2023/11/02 15:13:29;;;;;;;9.95;1.60;;;;;;;14.04;52.21;97809.47;30838849;28;96701;-64
2023/11/02 15:28:31;;;;;;;8.43;4.10;;;;;;;13.61;54.42;97841.34;30836487;28;96742;-63
2023/11/02 15:43:31;;;;;;;6.77;3.27;;;;;;;13.44;56.05;97806.63;30836144;28;96765;-63
2023/11/02 15:58:32;;;;;;;8.65;2.65;;;;;;;13.28;56.85;97807.44;30835119;28;124618;-63
2023/11/02 16:13:33;;;;;;;5.97;1.60;;;;;;;13.04;57.95;97776.38;30835814;28;97638;-63
2023/11/02 16:28:34;;;;;;;7.10;2.55;;;;;;;12.75;58.92;97746.28;30833328;28;124366;-63
2023/11/02 16:43:35;;;;;;;5.82;2.95;;;;;;;12.53;59.97;97733.69;30846973;28;97315;-63
2023/11/02 16:58:35;;;;;;;7.22;3.33;;;;;;;12.45;60.60;97715.41;30854058;28;102318;-63
2023/11/02 17:13:37;;;;;;;5.47;2.58;;;;;;;12.39;61.76;97686.97;30851459;28;105034;-64
2023/11/02 17:28:40;;;;;;;6.13;2.83;;;;;;;12.38;62.07;97679.22;30850028;28;97466;-64
2023/11/02 17:43:41;;;;;;;5.97;2.33;;;;;;;12.30;62.46;97653.72;30848195;28;96708;-63
2023/11/02 17:58:41;;;;;;;6.07;2.27;;;;;;;12.24;63.01;97638.72;30844222;28;97826;-64
2023/11/02 18:13:42;;;;;;;7.15;2.42;;;;;;;12.26;63.83;97637.41;30844874;28;125118;-64
2023/11/02 18:28:42;;;;;;;6.72;2.38;;;;;;;12.39;64.43;97636.25;30842580;28;96706;-63
2023/11/02 18:43:43;;;;;;;6.05;2.65;;;;;;;12.53;64.48;97626.88;30841057;28;97186;-64
2023/11/02 18:58:44;;;;;;;4.70;1.90;;;;;;;12.68;64.41;97630.78;30841541;28;97045;-63
2023/11/02 19:13:45;;;;;;;3.93;1.90;;;;;;;12.92;64.43;97633.25;30840629;28;96708;-64
2023/11/02 19:28:45;;;;;;;7.43;2.80;;;;;;;12.99;64.43;97628.50;30840523;28;96584;-64
2023/11/02 19:43:46;;;;;;;6.47;2.20;;;;;;;13.06;64.70;97631.00;30836398;28;125507;-64
2023/11/02 19:58:46;;;;;;;5.82;2.40;;;;;;;13.13;64.44;97613.69;30836546;28;125340;-64
2023/11/02 20:13:47;;;;;;;6.68;2.70;;;;;;;13.22;64.98;97598.03;30834972;28;97421;-64
2023/11/02 20:28:47;;;;;;;5.75;2.35;;;;;;;13.37;64.84;97568.00;30836523;28;97092;-64
2023/11/02 20:43:48;;;;;;;6.47;2.40;;;;;;;13.40;64.76;97516.69;30834170;28;96783;-64
2023/11/02 20:58:48;;;;;;;6.75;2.58;;;;;;;13.44;64.99;97508.97;30832252;28;97255;-63
2023/11/02 21:13:48;;;;;;;5.40;1.88;;;;;;;13.56;65.08;97522.16;30832630;28;97186;-64
2023/11/02 21:28:48;;;;;;;3.53;1.83;;;;;;;13.51;64.83;97518.38;30841583;28;117741;-64
2023/11/02 21:43:49;;;;;;;5.80;1.45;;;;;;;13.11;65.86;97508.91;30850764;28;125384;-63
2023/11/02 21:58:50;;;;;;;4.65;1.65;;;;;;;12.94;67.19;97503.66;30850958;28;96779;-62
2023/11/02 22:13:50;;;;;;;6.40;1.38;;;;;;;12.88;68.03;97487.84;30846762;28;125510;-63
2023/11/02 22:28:52;;;;;;;3.85;1.60;;;;;;;12.86;69.20;97498.75;30847766;28;103691;-62
2023/11/02 22:43:53;;;;;;;2.23;1.50;;;;;;;13.01;69.47;97490.91;30847032;28;97590;-62
2023/11/02 22:58:53;;;;;;;3.17;1.42;;;;;;;13.24;69.18;97454.22;30845952;28;125539;-62
2023/11/02 23:13:53;;;;;;;2.72;1.38;;;;;;;13.24;68.92;97438.19;30843844;28;113148;-63
2023/11/02 23:28:53;;;;;;;2.53;1.25;;;;;;;13.15;69.09;97415.66;30842340;28;126863;-62
2023/11/02 23:43:54;;;;;;;5.05;1.50;;;;;;;13.01;69.46;97337.78;30841922;28;109408;-65
2023/11/02 23:58:54;;;;;;;4.85;1.40;;;;;;;13.04;69.53;97398.75;30838796;28;126543;-62
